CSCL Genoa — V2OH2 — position and weather

sailwx.info

Track history (hours):
 
Tides and Currents Weather Stations Pressure Air Temp Water Temp Dewpoint Dewpoint Depression Visibility Wind Speed Wind Dir Waves Ship Positions

CSCL Genoa

Last reported at 2015-Jan-16 17:12 UTC. Time now 2015-Jan-26 14:30 UTC.
Position S 34°02' E 018°06'.
Warning: this ship's position is 9 days out of date.

Length 208 m; beam 32 m; draft 11.5 m.

Type: Ship. MMSI: 304528000.

Date/timePositionNaut miles runAvg speedWind from/ knotsBaromVisibWave heightAir tempDewpointWater temp
2015-Jan-16 17:12S 34°02' E 018°06'6 9.9
2015-Jan-16 16:33S 34°08' E 018°06'357 7.9
2015-Jan-14 19:14S 34°11' E 025°17'8317.7
2015-Jan-14 14:32S 33°50' E 026°55'31418.5
2015-Jan-13 21:33S 29°58' E 031°04'6 6.1
2015-Jan-13 20:32S 29°52' E 031°03'1 0.0
2015-Jan-12 20:14S 29°52' E 031°03'0 0.0
2015-Jan-12 19:26S 29°52' E 031°03'0 0.0
2015-Jan-12 14:32S 29°52' E 031°03'3 1.4
2015-Jan-12 12:33S 29°50' E 031°05'2 2.4
2015-Jan-12 11:33S 29°48' E 031°06'3 3.0
2015-Jan-12 10:27S 29°46' E 031°09'0 0.0
2015-Jan-12 09:33S 29°46' E 031°09'0 0.0
2015-Jan-12 08:27S 29°46' E 031°09'0 0.0
2015-Jan-12 07:33S 29°46' E 031°09'4 4.1
2015-Jan-12 06:33S 29°47' E 031°14'9 9.3
2015-Jan-12 05:33S 29°42' E 031°22'2110.4
2015-Jan-12 03:33S 29°28' E 031°40'1010.3
2015-Jan-12 02:33S 29°21' E 031°49'1010.2
2015-Jan-12 01:32S 29°14' E 031°58'1411.3
2015-Jan-12 00:18S 29°05' E 032°09'2612.8
2015-Jan-11 22:17S 28°43' E 032°26'1418.8
2015-Jan-11 21:33S 28°33' E 032°36'1918.2
2015-Jan-11 20:32S 28°18' E 032°49'  
Track history (hours):
 
Tides and Currents Weather Stations Pressure Air Temp Water Temp Dewpoint Dewpoint Depression Visibility Wind Speed Wind Dir Waves Ship Positions

CSCL Genoa

Last reported at 2015-Jan-16 17:12 UTC. Time now 2015-Jan-26 14:30 UTC.
Position S 34°02' E 018°06'.
Warning: this ship's position is 9 days out of date.

Length 208 m; beam 32 m; draft 11.5 m.

Type: Ship. MMSI: 304528000.

Date/timePositionNaut miles runAvg speedWind from/ knotsBaromVisibWave heightAir tempDewpointWater temp
2015-Jan-16 17:12S 34°02' E 018°06'6 9.9
2015-Jan-16 16:33S 34°08' E 018°06'357 7.9
2015-Jan-14 19:14S 34°11' E 025°17'8317.7
2015-Jan-14 14:32S 33°50' E 026°55'31418.5
2015-Jan-13 21:33S 29°58' E 031°04'6 6.1
2015-Jan-13 20:32S 29°52' E 031°03'1 0.0
2015-Jan-12 20:14S 29°52' E 031°03'0 0.0
2015-Jan-12 19:26S 29°52' E 031°03'0 0.0
2015-Jan-12 14:32S 29°52' E 031°03'3 1.4
2015-Jan-12 12:33S 29°50' E 031°05'2 2.4
2015-Jan-12 11:33S 29°48' E 031°06'3 3.0
2015-Jan-12 10:27S 29°46' E 031°09'0 0.0
2015-Jan-12 09:33S 29°46' E 031°09'0 0.0
2015-Jan-12 08:27S 29°46' E 031°09'0 0.0
2015-Jan-12 07:33S 29°46' E 031°09'4 4.1
2015-Jan-12 06:33S 29°47' E 031°14'9 9.3
2015-Jan-12 05:33S 29°42' E 031°22'2110.4
2015-Jan-12 03:33S 29°28' E 031°40'1010.3
2015-Jan-12 02:33S 29°21' E 031°49'1010.2
2015-Jan-12 01:32S 29°14' E 031°58'1411.3
2015-Jan-12 00:18S 29°05' E 032°09'2612.8
2015-Jan-11 22:17S 28°43' E 032°26'1418.8
2015-Jan-11 21:33S 28°33' E 032°36'1918.2
2015-Jan-11 20:32S 28°18' E 032°49'  

Dump ship's entire track history